Time;durP1;ratioP1;P1;durP2;ratioP2;P2;SDS_P1;SDS_P2;PMS_P1;PMS_P2;Temp;Humidity;BMP_temperature;BMP_pressure;BME280_temperature;BME280_humidity;BME280_pressure;Samples;Min_cycle;Max_cycle;Signal;HPM_P1;HPM_P2
2020/12/18 00:00:39;;;;;;;4.07;3.60;;;;;;;6.57;80.11;101166.97;5032894;28;20207;-77
2020/12/18 00:03:05;;;;;;;4.80;4.37;;;;;;;6.54;80.29;101167.50;5033016;28;20179;-76
2020/12/18 00:05:32;;;;;;;5.00;4.50;;;;;;;6.57;80.32;101167.78;5048153;28;20226;-76
2020/12/18 00:07:59;;;;;;;4.27;3.97;;;;;;;6.53;80.56;101163.16;5038925;28;20171;-76
2020/12/18 00:10:26;;;;;;;5.03;4.37;;;;;;;6.45;80.97;101166.38;5052820;28;20228;-76
2020/12/18 00:12:53;;;;;;;6.23;4.60;;;;;;;6.46;80.76;101157.16;5051436;28;20244;-76
2020/12/18 00:15:25;;;;;;;5.47;4.87;;;;;;;6.28;81.43;101155.72;5052473;28;20641;-77
2020/12/18 00:17:50;;;;;;;8.93;5.67;;;;;;;6.34;81.22;101160.06;5052642;28;20205;-76
2020/12/18 00:20:16;;;;;;;4.37;4.07;;;;;;;6.35;81.35;101155.47;5052852;28;20581;-77
2020/12/18 00:22:41;;;;;;;5.30;4.80;;;;;;;6.33;81.20;101160.34;5052870;28;20496;-77
2020/12/18 00:25:06;;;;;;;6.00;4.93;;;;;;;6.27;81.48;101148.66;5052190;28;20534;-76
2020/12/18 00:27:32;;;;;;;5.70;5.17;;;;;;;6.26;81.53;101144.31;5052039;28;20650;-77
2020/12/18 00:29:57;;;;;;;5.93;5.30;;;;;;;6.12;81.79;101146.69;5052678;28;20182;-77
2020/12/18 00:32:22;;;;;;;5.37;4.93;;;;;;;6.18;81.95;101155.66;5052474;28;20635;-76
2020/12/18 00:34:48;;;;;;;4.90;4.33;;;;;;;6.18;82.15;101158.38;5052368;28;20678;-77
2020/12/18 00:37:13;;;;;;;5.23;4.80;;;;;;;6.17;82.10;101154.84;5052178;28;20526;-77
2020/12/18 00:39:38;;;;;;;4.73;4.30;;;;;;;6.23;81.73;101151.09;5052309;28;20203;-76
2020/12/18 00:42:04;;;;;;;4.77;4.37;;;;;;;6.26;81.75;101156.00;5052296;28;20175;-76
2020/12/18 00:44:29;;;;;;;4.80;4.40;;;;;;;6.30;81.54;101152.75;5052029;28;20179;-77
2020/12/18 00:46:54;;;;;;;4.43;4.03;;;;;;;6.30;81.41;101153.56;5051736;28;20179;-77
2020/12/18 00:49:20;;;;;;;5.87;4.43;;;;;;;6.30;81.63;101156.28;5051998;28;20171;-76
2020/12/18 00:51:50;;;;;;;5.10;4.60;;;;;;;6.34;81.80;101160.06;5051988;28;20167;-76
2020/12/18 00:54:15;;;;;;;5.47;4.97;;;;;;;6.37;81.34;101165.00;5051995;28;20222;-76
2020/12/18 00:56:44;;;;;;;4.73;4.20;;;;;;;6.41;81.33;101162.56;5051950;28;20567;-77
2020/12/18 00:59:09;;;;;;;4.37;4.07;;;;;;;6.45;81.21;101169.91;5051824;28;20179;-76
2020/12/18 01:01:34;;;;;;;6.00;4.30;;;;;;;6.45;81.11;101172.63;5051796;28;20175;-77
2020/12/18 01:04:00;;;;;;;4.73;4.33;;;;;;;6.49;81.47;101173.69;5051681;28;20181;-76
2020/12/18 01:06:25;;;;;;;4.80;4.37;;;;;;;6.53;80.71;101171.28;5051674;28;20171;-76
2020/12/18 01:08:50;;;;;;;4.37;3.97;;;;;;;6.54;80.63;101183.78;5051666;28;20228;-77
2020/12/18 01:11:16;;;;;;;4.40;4.00;;;;;;;6.50;80.79;101172.63;5051930;28;20177;-75
2020/12/18 01:13:41;;;;;;;2.50;2.30;;;;;;;6.51;80.11;101173.47;5051695;28;20229;-76
2020/12/18 01:16:10;;;;;;;4.90;4.00;;;;;;;6.47;80.65;101173.16;5050112;28;20577;-76
2020/12/18 01:18:35;;;;;;;6.03;3.73;;;;;;;6.46;80.52;101173.44;5051549;28;20178;-76
2020/12/18 01:21:00;;;;;;;4.47;3.90;;;;;;;6.42;80.91;101177.75;5051460;28;20272;-76
2020/12/18 01:23:26;;;;;;;3.10;2.73;;;;;;;6.38;80.72;101182.09;5051357;28;20643;-76
2020/12/18 01:25:51;;;;;;;4.50;4.10;;;;;;;6.35;80.76;101179.88;5051375;28;20172;-77
2020/12/18 01:28:16;;;;;;;8.40;3.43;;;;;;;6.29;80.67;101183.69;5051234;28;20220;-77
2020/12/18 01:30:42;;;;;;;4.83;4.00;;;;;;;6.28;80.64;101179.34;5054026;28;20183;-77
2020/12/18 01:33:07;;;;;;;3.37;3.07;;;;;;;6.18;80.82;101183.63;5061003;28;20222;-77
2020/12/18 01:35:32;;;;;;;4.07;3.67;;;;;;;6.18;81.03;101182.81;5052785;28;20352;-76
2020/12/18 01:37:58;;;;;;;4.67;4.27;;;;;;;6.12;81.14;101190.09;5051485;28;20258;-77
2020/12/18 01:40:24;;;;;;;3.57;3.27;;;;;;;6.09;81.36;101192.53;5051444;28;20178;-76
2020/12/18 01:42:49;;;;;;;4.27;3.40;;;;;;;6.06;81.26;101195.75;5051162;28;20252;-77
2020/12/18 01:45:14;;;;;;;4.13;3.23;;;;;;;6.02;81.44;101210.94;5051307;28;20252;-76
2020/12/18 01:47:41;;;;;;;2.50;1.73;;;;;;;5.96;81.32;101207.38;5050954;28;20175;-77
2020/12/18 01:50:07;;;;;;;3.97;2.90;;;;;;;5.99;81.67;101208.75;5051110;28;20258;-77
2020/12/18 01:52:34;;;;;;;3.70;3.40;;;;;;;5.97;81.85;101209.00;5051101;28;20259;-77
2020/12/18 01:55:03;;;;;;;3.37;3.07;;;;;;;6.01;81.83;101207.41;5050928;28;20265;-77
2020/12/18 01:57:30;;;;;;;3.83;3.53;;;;;;;6.02;81.87;101202.78;5050800;28;20262;-76
2020/12/18 01:59:57;;;;;;;4.03;3.10;;;;;;;6.02;81.63;101205.50;5050977;28;20465;-77
2020/12/18 02:02:22;;;;;;;5.73;2.63;;;;;;;6.09;81.62;101200.69;5050932;28;20284;-76
2020/12/18 02:04:48;;;;;;;4.13;3.83;;;;;;;6.09;81.67;101206.09;5050872;28;20250;-77
2020/12/18 02:07:21;;;;;;;4.00;3.60;;;;;;;6.05;81.54;101204.97;5051026;28;20171;-77
2020/12/18 02:09:46;;;;;;;3.70;3.17;;;;;;;6.09;81.69;101201.50;5050772;28;20593;-77
2020/12/18 02:12:12;;;;;;;2.97;2.77;;;;;;;6.11;81.33;101206.66;5050809;28;20170;-76
2020/12/18 02:14:37;;;;;;;5.03;4.13;;;;;;;6.14;81.18;101203.41;5050725;28;20203;-76
2020/12/18 02:17:03;;;;;;;3.47;3.13;;;;;;;6.11;81.49;101193.09;5050525;28;20281;-77
2020/12/18 02:19:29;;;;;;;5.30;4.80;;;;;;;6.13;81.45;101191.75;5050702;28;20216;-77
2020/12/18 02:21:55;;;;;;;5.07;4.63;;;;;;;6.12;81.45;101197.44;5050686;28;20175;-76
2020/12/18 02:24:25;;;;;;;7.83;5.73;;;;;;;6.12;81.48;101194.72;5050233;28;20183;-77
2020/12/18 02:26:56;;;;;;;7.80;5.97;;;;;;;6.09;81.67;101198.78;5050551;28;20202;-77
2020/12/18 02:29:21;;;;;;;4.80;4.30;;;;;;;6.03;81.88;101199.81;5049233;28;20175;-77
2020/12/18 02:31:48;;;;;;;4.87;4.37;;;;;;;6.05;81.74;101204.97;5050582;28;20183;-77
2020/12/18 02:34:25;;;;;;;3.90;3.60;;;;;;;6.02;82.02;101198.19;5050435;28;20202;-77
2020/12/18 02:36:50;;;;;;;4.67;3.57;;;;;;;5.89;82.39;101201.31;5050242;28;20523;-76
2020/12/18 02:39:16;;;;;;;4.00;3.50;;;;;;;5.90;82.62;101192.94;5050416;28;20185;-77
2020/12/18 02:41:41;;;;;;;5.83;3.90;;;;;;;5.93;82.40;101192.44;5050560;28;20509;-77
2020/12/18 02:44:06;;;;;;;5.80;3.27;;;;;;;5.91;82.32;101185.63;5050327;28;20186;-77
2020/12/18 02:46:32;;;;;;;3.47;3.17;;;;;;;5.92;82.58;101184.56;5050623;28;20175;-77
2020/12/18 02:48:57;;;;;;;5.60;3.77;;;;;;;5.91;82.83;101182.91;5051424;28;20539;-77
2020/12/18 02:51:22;;;;;;;4.70;3.67;;;;;;;5.88;82.78;101186.94;5054142;28;20179;-77
2020/12/18 02:53:48;;;;;;;4.47;3.67;;;;;;;5.86;83.01;101180.97;5054210;28;20207;-77
2020/12/18 02:56:13;;;;;;;6.03;3.00;;;;;;;5.93;82.94;101184.31;5054321;28;20210;-77
2020/12/18 02:58:38;;;;;;;5.83;3.00;;;;;;;5.82;83.15;101185.28;5054188;28;20209;-77
2020/12/18 03:01:04;;;;;;;4.50;4.00;;;;;;;5.81;83.27;101180.13;5054200;28;20175;-77
2020/12/18 03:03:29;;;;;;;4.77;4.00;;;;;;;5.62;83.42;101179.72;5054015;28;20705;-77
2020/12/18 03:05:54;;;;;;;3.53;3.00;;;;;;;5.50;83.66;101187.25;5053852;28;20182;-74
2020/12/18 03:08:19;;;;;;;5.10;3.80;;;;;;;5.13;84.71;101188.00;5053708;28;20175;-77
2020/12/18 03:10:45;;;;;;;5.27;4.23;;;;;;;5.13;85.23;101181.75;5053885;28;20190;-76
2020/12/18 03:13:10;;;;;;;4.93;3.63;;;;;;;5.13;85.08;101189.88;5053498;28;20254;-77
2020/12/18 03:15:35;;;;;;;5.13;3.73;;;;;;;5.17;85.14;101177.44;5053255;28;20241;-77
2020/12/18 03:18:01;;;;;;;4.13;3.77;;;;;;;5.26;84.63;101181.34;5053811;28;20175;-77
2020/12/18 03:20:26;;;;;;;6.40;3.13;;;;;;;5.22;84.85;101182.94;5054305;28;20172;-76
2020/12/18 03:22:52;;;;;;;4.83;3.20;;;;;;;5.37;84.54;101186.59;5052268;28;20594;-77
2020/12/18 03:25:17;;;;;;;3.50;3.20;;;;;;;5.39;84.45;101186.34;5054305;28;20642;-77
2020/12/18 03:27:42;;;;;;;5.73;3.10;;;;;;;5.45;83.64;101185.28;5053687;28;20171;-77
2020/12/18 03:30:08;;;;;;;4.03;3.70;;;;;;;5.51;83.85;101197.00;5053570;28;20661;-76
2020/12/18 03:32:33;;;;;;;3.33;2.93;;;;;;;5.52;84.06;101191.31;5053479;28;20241;-77
2020/12/18 03:34:58;;;;;;;3.47;3.17;;;;;;;5.48;84.00;101197.50;5053413;28;20701;-76
2020/12/18 03:37:24;;;;;;;5.93;3.53;;;;;;;5.51;84.26;101194.28;5053198;28;20590;-77
2020/12/18 03:39:49;;;;;;;3.70;3.00;;;;;;;5.49;84.46;101191.00;5053276;28;20171;-76
2020/12/18 03:42:15;;;;;;;4.00;3.63;;;;;;;5.40;84.56;101193.38;5053345;28;20187;-76
2020/12/18 03:44:40;;;;;;;4.07;3.47;;;;;;;5.43;84.70;101192.03;5053323;28;20665;-76
2020/12/18 03:47:05;;;;;;;3.40;3.20;;;;;;;5.44;84.81;101193.66;5053082;28;20643;-77
2020/12/18 03:49:31;;;;;;;5.80;3.43;;;;;;;5.43;84.70;101197.47;5053272;28;20276;-77
2020/12/18 03:51:56;;;;;;;3.70;3.23;;;;;;;5.26;84.95;101189.47;5053102;28;20187;-77
2020/12/18 03:54:21;;;;;;;5.17;3.37;;;;;;;5.41;84.48;101194.19;5053194;28;20284;-77
2020/12/18 03:56:48;;;;;;;4.40;3.30;;;;;;;5.50;84.24;101195.38;5053148;28;20283;-77
2020/12/18 03:59:13;;;;;;;3.43;3.13;;;;;;;5.47;84.60;101196.69;5053080;28;20306;-76
2020/12/18 04:01:39;;;;;;;3.23;2.47;;;;;;;5.47;84.61;101193.97;5052094;28;20202;-76
2020/12/18 04:04:04;;;;;;;5.90;3.40;;;;;;;5.50;84.63;101204.31;5052887;28;20194;-76
2020/12/18 04:06:29;;;;;;;4.17;3.03;;;;;;;5.53;84.61;101205.69;5052919;28;20179;-76
2020/12/18 04:08:55;;;;;;;3.70;3.20;;;;;;;5.55;84.46;101206.25;5052883;28;20194;-76
2020/12/18 04:11:20;;;;;;;3.77;2.60;;;;;;;5.57;84.56;101202.19;5051532;28;20183;-76
2020/12/18 04:13:45;;;;;;;4.57;2.83;;;;;;;5.65;84.31;101204.44;5052606;28;20203;-76
2020/12/18 04:16:11;;;;;;;4.00;3.07;;;;;;;5.70;84.15;101206.34;5052606;28;20533;-76
2020/12/18 04:18:36;;;;;;;4.20;3.40;;;;;;;5.66;83.87;101205.25;5052552;28;20179;-77
2020/12/18 04:21:01;;;;;;;3.47;3.17;;;;;;;5.56;84.49;101200.56;5052425;28;20190;-76
2020/12/18 04:23:27;;;;;;;5.57;2.97;;;;;;;5.63;84.38;101201.13;5052598;28;20298;-77
2020/12/18 04:25:53;;;;;;;4.47;2.80;;;;;;;5.69;84.63;101199.28;5052458;28;20167;-77
2020/12/18 04:28:18;;;;;;;3.60;3.00;;;;;;;5.73;84.29;101207.72;5052494;28;20225;-76
2020/12/18 04:30:44;;;;;;;3.03;2.83;;;;;;;5.65;84.25;101209.03;5052381;28;20175;-77
2020/12/18 04:33:09;;;;;;;6.30;3.30;;;;;;;5.41;85.08;101210.47;5052489;28;20167;-76
2020/12/18 04:35:35;;;;;;;5.00;4.60;;;;;;;5.40;84.98;101203.41;5052189;28;20722;-77
2020/12/18 04:38:00;;;;;;;13.17;12.07;;;;;;;5.56;nan;101213.28;5052298;28;20175;-77
2020/12/18 04:40:27;;;;;;;11.90;10.90;;;;;;;5.46;84.85;101208.59;5052401;28;20183;-77
2020/12/18 04:42:53;;;;;;;6.23;5.63;;;;;;;5.62;84.59;101206.81;5052291;28;20169;-76
2020/12/18 04:45:18;;;;;;;8.13;7.40;;;;;;;5.62;84.55;101206.81;5052266;28;20273;-76
2020/12/18 04:47:48;;;;;;;14.20;12.83;;;;;;;5.40;84.28;101209.63;5051985;28;20183;-76
2020/12/18 04:50:13;;;;;;;7.30;5.07;;;;;;;5.52;84.38;101199.44;5052061;28;20167;-76
2020/12/18 04:52:38;;;;;;;5.97;5.47;;;;;;;5.52;84.04;101204.88;5052331;28;20237;-76
2020/12/18 04:55:05;;;;;;;5.53;4.67;;;;;;;5.56;84.09;101197.84;5052094;28;20230;-76
2020/12/18 04:57:33;;;;;;;5.90;5.23;;;;;;;5.47;84.48;101199.38;5051814;28;20623;-76
2020/12/18 05:00:04;;;;;;;6.50;5.27;;;;;;;5.53;84.55;101192.13;5052037;28;20191;-77
2020/12/18 05:02:29;;;;;;;5.53;4.93;;;;;;;5.55;84.67;101190.78;5052303;28;20175;-76
2020/12/18 05:04:56;;;;;;;7.53;5.20;;;;;;;5.58;84.84;101198.41;5051727;28;20492;-77
2020/12/18 05:07:22;;;;;;;5.70;5.20;;;;;;;5.60;84.69;101190.00;5051657;28;20168;-77
2020/12/18 05:09:51;;;;;;;5.60;5.10;;;;;;;5.67;84.68;101198.75;5051671;28;20193;-76
2020/12/18 05:12:17;;;;;;;5.63;4.80;;;;;;;5.73;84.49;101192.28;5051520;28;20193;-76
2020/12/18 05:14:43;;;;;;;5.67;5.17;;;;;;;5.79;84.38;101193.13;5051711;28;20195;-76
2020/12/18 05:17:09;;;;;;;5.70;5.20;;;;;;;5.84;84.42;101196.69;5051404;28;20631;-76
2020/12/18 05:19:36;;;;;;;6.17;5.50;;;;;;;5.80;84.54;101192.06;5051350;28;20177;-77
2020/12/18 05:22:03;;;;;;;5.87;5.10;;;;;;;5.83;84.54;101199.66;5051440;28;20229;-77
2020/12/18 05:24:30;;;;;;;6.67;5.73;;;;;;;5.88;84.23;101196.97;5051384;28;20177;-77
2020/12/18 05:26:56;;;;;;;11.07;10.07;;;;;;;5.81;84.34;101205.34;5051178;28;20171;-76
2020/12/18 05:29:21;;;;;;;9.00;8.17;;;;;;;5.92;84.18;101206.25;5051367;28;20186;-76
2020/12/18 05:31:49;;;;;;;7.50;6.70;;;;;;;5.91;84.21;101201.91;5051171;28;20204;-77
2020/12/18 05:34:15;;;;;;;7.17;6.57;;;;;;;5.86;84.50;101207.28;5051219;28;20412;-76
2020/12/18 05:36:42;;;;;;;7.97;7.27;;;;;;;5.92;84.72;101204.34;5051161;28;20201;-77
2020/12/18 05:39:09;;;;;;;11.13;8.67;;;;;;;5.82;84.62;101206.16;5051337;28;20194;-78
2020/12/18 05:41:34;;;;;;;15.93;12.30;;;;;;;5.71;84.93;101205.28;5051131;28;20194;-74
2020/12/18 05:44:05;;;;;;;15.60;14.00;;;;;;;5.76;85.07;101207.19;5050993;28;20175;-74
2020/12/18 05:46:32;;;;;;;13.00;11.67;;;;;;;5.96;84.26;101213.63;5051083;28;20213;-77
2020/12/18 05:48:57;;;;;;;13.40;12.10;;;;;;;5.93;84.13;101206.00;5050927;28;20187;-77
2020/12/18 05:51:41;;;;;;;13.67;12.37;;;;;;;5.88;84.44;101205.94;5050934;28;20501;-77
2020/12/18 05:54:17;;;;;;;19.13;15.23;;;;;;;5.89;84.02;101207.56;5050928;28;20199;-77
2020/12/18 05:56:48;;;;;;;13.13;11.13;;;;;;;5.90;84.31;101211.13;5050914;28;20186;-77
2020/12/18 05:59:16;;;;;;;26.90;17.77;;;;;;;5.84;84.06;101214.84;5050832;28;20164;-77
2020/12/18 06:01:42;;;;;;;10.47;9.47;;;;;;;5.94;83.81;101207.66;5050859;28;20213;-77
2020/12/18 06:04:15;;;;;;;12.33;9.90;;;;;;;6.00;83.58;101210.38;5051133;28;20179;-76
2020/12/18 06:06:58;;;;;;;15.37;13.83;;;;;;;5.94;83.79;101215.78;5050636;28;20217;-76
2020/12/18 06:09:28;;;;;;;6.87;6.37;;;;;;;5.98;83.73;101218.78;5050836;28;20177;-76
2020/12/18 06:11:54;;;;;;;8.67;6.67;;;;;;;5.87;83.56;101217.84;5050646;28;20225;-76
2020/12/18 06:14:20;;;;;;;6.37;5.80;;;;;;;5.89;83.70;101225.72;5050510;28;20804;-76
2020/12/18 06:16:50;;;;;;;7.10;6.40;;;;;;;5.73;84.66;101224.81;5050534;28;20270;-74
2020/12/18 06:19:20;;;;;;;6.20;5.67;;;;;;;5.87;83.92;101227.88;5050867;28;20207;-76
2020/12/18 06:21:53;;;;;;;6.10;4.27;;;;;;;5.83;83.77;101230.31;5050593;28;20178;-77
2020/12/18 06:24:18;;;;;;;5.60;4.40;;;;;;;5.86;83.85;101224.34;5050152;28;20627;-76
2020/12/18 06:26:54;;;;;;;5.70;5.20;;;;;;;5.64;84.90;101220.94;5050345;28;20179;-76
2020/12/18 06:29:22;;;;;;;5.27;4.73;;;;;;;5.64;84.57;101215.50;5050796;28;20485;-77
2020/12/18 06:31:48;;;;;;;6.77;5.30;;;;;;;5.51;84.76;101224.91;5050348;28;20545;-76
2020/12/18 06:34:28;;;;;;;5.93;5.23;;;;;;;5.62;84.30;101218.47;5050251;28;20278;-77
2020/12/18 06:36:58;;;;;;;7.20;5.93;;;;;;;5.54;83.77;101215.44;5050400;28;20193;-76
2020/12/18 06:39:29;;;;;;;5.10;4.17;;;;;;;5.52;84.41;101213.00;5050496;28;20167;-77
2020/12/18 06:42:16;;;;;;;4.57;4.17;;;;;;;5.56;84.37;101205.97;5050312;28;20182;-76
2020/12/18 06:44:50;;;;;;;3.77;3.47;;;;;;;5.56;84.16;101216.00;5050105;28;20185;-75
2020/12/18 06:47:19;;;;;;;6.47;4.17;;;;;;;5.54;84.36;101210.03;5050012;28;20281;-74
2020/12/18 06:49:56;;;;;;;5.70;3.87;;;;;;;5.60;84.44;101204.38;5050261;28;20206;-75
2020/12/18 06:52:38;;;;;;;6.30;4.07;;;;;;;5.62;84.22;101202.22;5050156;28;20645;-74
2020/12/18 06:55:05;;;;;;;6.60;3.97;;;;;;;5.64;84.07;101199.25;5050158;28;20598;-74
2020/12/18 06:57:31;;;;;;;5.20;3.83;;;;;;;5.67;84.00;101204.16;5050018;28;20168;-74
2020/12/18 07:00:21;;;;;;;4.83;4.10;;;;;;;5.64;83.77;101199.25;5050188;28;20250;-73
2020/12/18 07:02:46;;;;;;;5.37;4.27;;;;;;;5.61;84.08;101195.16;5050272;28;20176;-74
2020/12/18 07:05:38;;;;;;;4.77;3.73;;;;;;;5.60;83.96;101193.53;5050186;28;20167;-76
2020/12/18 07:08:11;;;;;;;6.27;5.53;;;;;;;5.52;84.11;101193.22;5050173;28;20159;-76
2020/12/18 07:10:40;;;;;;;6.03;4.97;;;;;;;5.45;84.83;101192.59;5050143;28;20171;-76
2020/12/18 07:13:07;;;;;;;7.60;6.37;;;;;;;5.30;85.28;101180.56;5050046;28;20179;-76
2020/12/18 07:15:45;;;;;;;6.73;6.13;;;;;;;5.28;85.55;101187.31;5048484;28;20214;-76
2020/12/18 07:18:26;;;;;;;10.27;6.43;;;;;;;5.25;85.57;101177.81;5050059;28;20202;-76
2020/12/18 07:20:53;;;;;;;9.57;6.27;;;;;;;5.25;85.61;101185.94;5050051;28;20627;-75
2020/12/18 07:23:20;;;;;;;7.03;6.43;;;;;;;5.23;85.86;101192.69;5049842;28;20179;-74
2020/12/18 07:25:46;;;;;;;8.27;5.23;;;;;;;5.30;85.59;101199.53;5049839;28;20707;-74
2020/12/18 07:28:13;;;;;;;6.57;5.97;;;;;;;5.32;85.79;101191.94;5049881;28;20203;-74
2020/12/18 07:30:40;;;;;;;8.90;6.87;;;;;;;5.35;85.69;101190.59;5049760;28;20633;-74
2020/12/18 07:33:06;;;;;;;9.07;6.07;;;;;;;5.32;85.84;101185.72;5049622;28;20202;-74
2020/12/18 07:35:36;;;;;;;6.33;5.83;;;;;;;5.38;85.64;101185.50;5051488;28;20206;-75
2020/12/18 07:38:02;;;;;;;8.27;6.97;;;;;;;5.25;85.50;101187.84;5061880;28;20193;-75
2020/12/18 07:40:27;;;;;;;6.03;5.43;;;;;;;5.30;85.91;101174.31;5058824;28;20231;-75
2020/12/18 07:42:52;;;;;;;9.37;6.40;;;;;;;5.29;85.73;101183.53;5053867;28;20205;-74
2020/12/18 07:45:18;;;;;;;6.07;4.30;;;;;;;5.31;85.80;101165.94;5052148;28;20657;-75
2020/12/18 07:47:43;;;;;;;3.90;3.50;;;;;;;5.32;85.94;101172.16;5052106;28;20184;-74
2020/12/18 07:50:09;;;;;;;9.63;6.47;;;;;;;5.33;86.14;101181.94;5053327;28;20186;-74
2020/12/18 07:52:35;;;;;;;8.93;6.17;;;;;;;5.32;86.07;101170.28;5053277;28;20171;-74
2020/12/18 07:55:03;;;;;;;7.07;6.13;;;;;;;5.40;86.13;101184.44;5053545;28;20202;-74
2020/12/18 07:57:28;;;;;;;8.83;4.93;;;;;;;5.39;86.22;101189.03;5053069;28;20175;-75
2020/12/18 08:00:14;;;;;;;5.50;4.00;;;;;;;5.42;86.00;101185.81;5053055;28;20182;-75
2020/12/18 08:02:39;;;;;;;10.10;4.93;;;;;;;5.45;86.00;101188.00;5052741;28;20183;-74
2020/12/18 08:05:05;;;;;;;7.13;5.63;;;;;;;5.48;86.04;101184.75;5052954;28;20631;-75
2020/12/18 08:07:31;;;;;;;7.83;6.47;;;;;;;5.49;86.02;101191.00;5052763;28;20172;-74
2020/12/18 08:10:01;;;;;;;7.30;6.60;;;;;;;5.51;85.75;101186.16;5053001;28;20167;-74
2020/12/18 08:12:30;;;;;;;6.07;2.87;;;;;;;5.52;85.72;101188.59;5052638;28;20171;-74
2020/12/18 08:15:25;;;;;;;9.90;5.73;;;;;;;5.54;86.11;101196.47;5052830;28;20641;-74
2020/12/18 08:17:50;;;;;;;6.03;5.07;;;;;;;5.56;85.90;101195.13;5043684;28;20188;-74
2020/12/18 08:20:16;;;;;;;6.43;5.63;;;;;;;5.59;85.99;101188.38;5053099;28;20535;-75
2020/12/18 08:22:45;;;;;;;6.93;5.80;;;;;;;5.61;85.62;101195.16;5052562;28;20598;-75
2020/12/18 08:25:15;;;;;;;8.17;4.87;;;;;;;5.67;85.64;101198.75;5052629;28;20167;-74
2020/12/18 08:27:50;;;;;;;7.10;6.50;;;;;;;5.64;85.59;101196.53;5052423;28;20198;-75
2020/12/18 08:30:22;;;;;;;7.33;6.63;;;;;;;5.59;85.97;101197.31;5052544;28;20245;-75
2020/12/18 08:32:53;;;;;;;8.30;6.87;;;;;;;5.62;85.83;101190.56;5052497;28;20176;-75
2020/12/18 08:35:22;;;;;;;7.03;5.73;;;;;;;5.67;85.82;101185.19;5052234;28;20677;-74
2020/12/18 08:37:49;;;;;;;7.30;6.30;;;;;;;5.61;85.76;101197.06;5052550;28;20171;-75
2020/12/18 08:40:24;;;;;;;11.47;5.90;;;;;;;5.72;85.43;101201.47;5052368;28;20171;-75
2020/12/18 08:43:02;;;;;;;9.73;6.83;;;;;;;5.68;85.58;101206.63;5052225;28;20175;-76
2020/12/18 08:45:28;;;;;;;8.90;8.00;;;;;;;5.75;85.49;101202.84;5052123;28;20622;-76
2020/12/18 08:47:54;;;;;;;7.07;6.37;;;;;;;5.79;85.01;101206.69;5051097;28;20273;-76
2020/12/18 08:50:20;;;;;;;9.20;4.57;;;;;;;5.79;85.09;101206.69;5051477;28;20283;-75
2020/12/18 08:52:49;;;;;;;9.23;8.40;;;;;;;5.64;85.93;101207.38;5052200;28;20679;-76
2020/12/18 08:55:21;;;;;;;10.50;7.50;;;;;;;5.74;85.67;101193.91;5051881;28;20221;-76
2020/12/18 08:57:46;;;;;;;15.23;11.30;;;;;;;5.71;85.45;101204.47;5051879;28;20538;-76
2020/12/18 09:00:14;;;;;;;9.30;8.40;;;;;;;5.73;85.59;101208.53;5051906;28;20182;-76
2020/12/18 09:02:39;;;;;;;10.83;9.80;;;;;;;5.70;85.54;101194.69;5051810;28;20190;-76
2020/12/18 09:05:18;;;;;;;8.87;8.13;;;;;;;5.79;85.60;101199.38;5051887;28;20175;-77
2020/12/18 09:07:49;;;;;;;9.20;7.67;;;;;;;5.80;85.28;101195.59;5051665;28;20182;-77
2020/12/18 09:10:26;;;;;;;7.20;6.23;;;;;;;5.86;84.83;101202.66;5051457;28;20541;-76
2020/12/18 09:12:52;;;;;;;8.30;7.60;;;;;;;5.82;85.14;101198.84;5050359;28;20533;-76
2020/12/18 09:15:29;;;;;;;38.07;15.90;;;;;;;5.84;85.07;101207.53;5051487;28;20210;-76
2020/12/18 09:18:12;;;;;;;15.90;10.23;;;;;;;5.82;85.03;101206.97;5050640;28;20170;-76
2020/12/18 09:20:42;;;;;;;10.20;8.70;;;;;;;5.87;85.14;101203.47;5031340;28;20172;-76
2020/12/18 09:23:13;;;;;;;6.67;6.07;;;;;;;5.91;85.07;101204.63;5047193;28;20182;-76
2020/12/18 09:25:41;;;;;;;10.20;9.17;;;;;;;5.84;85.18;101196.69;5048001;28;20619;-77
2020/12/18 09:28:13;;;;;;;6.13;5.33;;;;;;;5.93;84.81;101205.16;5049560;28;20183;-76
2020/12/18 09:30:39;;;;;;;9.57;8.77;;;;;;;5.88;84.98;101205.94;5051123;28;20194;-76
2020/12/18 09:33:08;;;;;;;8.80;7.70;;;;;;;5.88;85.33;101199.69;5051265;28;20651;-76
2020/12/18 09:35:34;;;;;;;10.17;6.87;;;;;;;5.90;85.14;101209.22;5049295;28;20246;-76
2020/12/18 09:37:59;;;;;;;8.53;7.63;;;;;;;5.89;85.21;101204.84;5046788;28;20222;-76
2020/12/18 09:40:25;;;;;;;9.60;7.83;;;;;;;5.96;85.28;101207.38;5049674;28;20187;-77
2020/12/18 09:42:50;;;;;;;4.50;4.10;;;;;;;6.04;85.02;101206.06;5049882;28;20212;-76
2020/12/18 09:45:15;;;;;;;6.33;5.73;;;;;;;6.11;84.39;101207.47;5051132;28;20194;-76
2020/12/18 09:47:41;;;;;;;4.60;4.17;;;;;;;6.13;84.54;101210.72;5050602;28;20183;-76
2020/12/18 09:50:06;;;;;;;9.53;7.03;;;;;;;6.15;84.58;101205.03;5050241;28;20182;-76
2020/12/18 09:52:31;;;;;;;7.27;6.60;;;;;;;6.22;84.01;101198.31;5050748;28;20192;-77
2020/12/18 09:54:56;;;;;;;7.67;6.97;;;;;;;6.25;84.39;101199.69;5050765;28;20207;-76
2020/12/18 09:57:22;;;;;;;13.33;5.53;;;;;;;6.30;83.66;101198.88;5051045;28;20202;-77
2020/12/18 09:59:47;;;;;;;2.77;2.43;;;;;;;6.32;83.64;101200.22;5050063;28;20171;-77
2020/12/18 10:02:12;;;;;;;9.40;2.87;;;;;;;6.30;83.63;101196.16;5050841;28;20585;-77
2020/12/18 10:04:38;;;;;;;6.10;5.57;;;;;;;6.30;83.65;101196.97;5050644;28;20615;-75
2020/12/18 10:07:03;;;;;;;4.27;3.20;;;;;;;6.30;83.50;101194.25;5050508;28;20194;-76
2020/12/18 10:09:29;;;;;;;3.33;3.03;;;;;;;6.36;83.19;101195.09;5049319;28;20175;-76
2020/12/18 10:11:55;;;;;;;2.03;1.93;;;;;;;6.42;83.83;101191.34;5050763;28;20167;-76
2020/12/18 10:14:20;;;;;;;2.43;2.23;;;;;;;6.47;82.63;101175.88;5050411;28;20222;-75
2020/12/18 10:16:45;;;;;;;2.43;2.33;;;;;;;6.55;82.85;101177.28;5050753;28;20184;-77
2020/12/18 10:19:11;;;;;;;5.10;4.67;;;;;;;6.57;82.76;101178.63;5050569;28;20531;-76
2020/12/18 10:21:36;;;;;;;8.30;2.53;;;;;;;6.61;82.22;101181.63;5050400;28;20637;-76
2020/12/18 10:24:01;;;;;;;4.47;2.90;;;;;;;6.70;81.92;101173.78;5050397;28;20552;-75
2020/12/18 10:26:27;;;;;;;5.13;4.63;;;;;;;6.72;81.98;101168.91;5050517;28;20175;-76
2020/12/18 10:28:52;;;;;;;2.90;2.60;;;;;;;6.71;82.04;101172.69;5050546;28;20209;-76
2020/12/18 10:31:17;;;;;;;6.23;5.73;;;;;;;6.73;82.03;101176.78;5050457;28;20331;-76
2020/12/18 10:33:43;;;;;;;5.63;4.50;;;;;;;6.82;82.04;101171.66;5050798;28;20198;-77
2020/12/18 10:36:08;;;;;;;4.93;4.53;;;;;;;6.81;81.79;101181.69;5050185;28;20237;-76
2020/12/18 10:38:33;;;;;;;13.07;2.00;;;;;;;6.85;81.82;101176.53;5050291;28;20254;-76
2020/12/18 10:40:59;;;;;;;5.07;4.57;;;;;;;6.90;81.65;101181.16;5049327;28;20524;-75
2020/12/18 10:43:24;;;;;;;4.80;4.03;;;;;;;7.01;81.53;101177.38;5049387;28;20613;-75
2020/12/18 10:45:50;;;;;;;4.90;4.00;;;;;;;7.06;80.73;101190.97;5050234;28;20175;-76
2020/12/18 10:48:17;;;;;;;4.50;3.70;;;;;;;7.18;80.58;101179.84;5049984;28;20609;-76
2020/12/18 10:50:42;;;;;;;6.13;4.53;;;;;;;7.20;79.90;101177.66;5050032;28;20627;-75
2020/12/18 10:53:08;;;;;;;4.17;3.80;;;;;;;7.22;79.88;101178.19;5048798;28;20193;-75
2020/12/18 10:55:34;;;;;;;5.27;4.23;;;;;;;7.32;80.06;101184.47;5050091;28;20215;-75
2020/12/18 10:57:59;;;;;;;4.13;3.77;;;;;;;7.36;79.68;101184.72;5049937;28;20186;-76
2020/12/18 11:00:24;;;;;;;3.73;3.23;;;;;;;7.46;79.15;101173.88;5049578;28;20176;-76
2020/12/18 11:02:50;;;;;;;3.43;3.13;;;;;;;7.46;78.98;101173.88;5050234;28;20177;-76
2020/12/18 11:05:15;;;;;;;4.37;3.97;;;;;;;7.38;79.55;101188.84;5049872;28;20187;-76
2020/12/18 11:07:40;;;;;;;5.10;3.97;;;;;;;7.57;79.12;101191.00;5050166;28;20186;-74
2020/12/18 11:10:06;;;;;;;6.10;4.33;;;;;;;7.62;79.07;101180.09;5051513;28;20211;-74
2020/12/18 11:12:31;;;;;;;4.67;4.13;;;;;;;7.72;78.01;101182.81;5053860;28;20175;-75
2020/12/18 11:14:57;;;;;;;2.60;2.40;;;;;;;7.85;78.06;101189.63;5053801;28;20298;-76
2020/12/18 11:17:23;;;;;;;4.77;4.30;;;;;;;7.86;78.08;101191.25;5052991;28;20179;-74
2020/12/18 11:19:48;;;;;;;6.13;5.63;;;;;;;7.81;78.26;101186.63;5053435;28;20175;-74
2020/12/18 11:22:13;;;;;;;4.90;4.40;;;;;;;7.92;78.58;101182.78;5053733;28;20175;-75
2020/12/18 11:24:39;;;;;;;4.93;4.43;;;;;;;8.01;77.96;101172.97;5053546;28;20277;-75
2020/12/18 11:27:04;;;;;;;6.73;4.37;;;;;;;8.06;77.30;101166.69;5052255;28;20194;-74
2020/12/18 11:29:30;;;;;;;4.97;4.27;;;;;;;8.09;76.78;101174.31;5051593;28;20215;-75
2020/12/18 11:31:55;;;;;;;4.57;4.17;;;;;;;7.92;77.43;101184.69;5053032;28;20244;-75